Time;durP1;ratioP1;P1;durP2;ratioP2;P2;SDS_P1;SDS_P2;PMS_P1;PMS_P2;Temp;Humidity;BMP_temperature;BMP_pressure;BME280_temperature;BME280_humidity;BME280_pressure;Samples;Min_cycle;Max_cycle;Signal;HPM_P1;HPM_P2
2023/01/10 00:00:06;;;;;;;14.57;3.10;;;6.10;99.90;;;;;;5051585;28;20425;-58
2023/01/10 00:02:32;;;;;;;15.85;2.88;;;6.10;99.90;;;;;;5048603;28;20447;-59
2023/01/10 00:04:57;;;;;;;13.60;2.80;;;6.10;99.90;;;;;;5050281;28;20073;-59
2023/01/10 00:07:23;;;;;;;31.43;5.27;;;6.10;99.90;;;;;;5050152;28;20120;-60
2023/01/10 00:09:49;;;;;;;13.37;2.63;;;6.10;99.90;;;;;;5051223;28;20095;-60
2023/01/10 00:14:58;;;;;;;22.88;3.38;;;6.00;99.90;;;;;;5051474;28;20048;-57
2023/01/10 00:17:24;;;;;;;10.18;3.25;;;5.90;99.90;;;;;;5050853;28;20375;-59
2023/01/10 00:19:49;;;;;;;17.40;3.43;;;5.90;99.90;;;;;;5051516;28;20033;-61
2023/01/10 00:22:17;;;;;;;15.07;3.97;;;5.90;99.90;;;;;;5050456;28;20083;-59
2023/01/10 00:24:43;;;;;;;16.35;3.22;;;5.90;99.90;;;;;;5049349;28;20049;-59
2023/01/10 00:27:11;;;;;;;19.83;4.23;;;5.90;99.90;;;;;;5049414;28;20047;-57
2023/01/10 00:29:37;;;;;;;24.00;3.75;;;5.80;99.90;;;;;;5047982;28;20033;-57
2023/01/10 00:32:03;;;;;;;22.33;4.80;;;5.80;99.90;;;;;;5050818;28;20087;-58
2023/01/10 00:34:29;;;;;;;26.47;4.27;;;5.80;99.90;;;;;;5049733;28;20033;-60
2023/01/10 00:36:55;;;;;;;;;;;5.70;99.90;;;;;;5050793;28;20616;-58
2023/01/10 00:39:21;;;;;;;16.00;4.72;;;5.70;99.90;;;;;;5049871;28;19935;-60
2023/01/10 00:44:31;;;;;;;24.30;4.22;;;5.70;99.90;;;;;;5049924;28;19916;-58
2023/01/10 00:46:57;;;;;;;19.83;3.63;;;5.70;99.90;;;;;;5046344;28;20041;-60
2023/01/10 00:49:22;;;;;;;24.13;3.80;;;5.80;99.90;;;;;;5050297;28;20071;-60
2023/01/10 00:51:48;;;;;;;24.47;4.50;;;5.80;99.90;;;;;;5048013;28;20402;-60
2023/01/10 00:54:14;;;;;;;25.15;5.85;;;5.80;99.90;;;;;;5049605;28;20079;-59
2023/01/10 00:56:40;;;;;;;22.15;4.75;;;5.90;99.90;;;;;;5049792;28;20595;-58
2023/01/10 00:59:06;;;;;;;20.33;4.30;;;5.90;99.90;;;;;;5049855;28;20064;-57
2023/01/10 01:01:32;;;;;;;31.63;4.90;;;6.00;99.90;;;;;;5050132;28;20136;-58
2023/01/10 01:03:58;;;;;;;18.80;3.17;;;6.00;99.90;;;;;;5049101;28;20111;-60
2023/01/10 01:06:24;;;;;;;22.70;4.00;;;6.00;99.90;;;;;;5048834;28;20048;-60
2023/01/10 01:08:50;;;;;;;14.88;2.50;;;6.00;99.90;;;;;;5049924;28;20073;-59
2023/01/10 01:11:15;;;;;;;17.23;4.15;;;6.00;99.90;;;;;;5049917;28;20441;-58
2023/01/10 01:13:41;;;;;;;21.47;4.10;;;5.90;99.90;;;;;;5049474;28;20406;-57
2023/01/10 01:16:07;;;;;;;18.67;3.23;;;5.90;99.90;;;;;;5049171;28;20061;-60
2023/01/10 01:18:33;;;;;;;24.60;4.97;;;5.90;99.90;;;;;;5049432;28;20102;-59
2023/01/10 01:21:04;;;;;;;18.15;3.08;;;5.90;99.90;;;;;;5049177;28;20033;-58
2023/01/10 01:23:31;;;;;;;21.33;4.03;;;5.90;99.90;;;;;;5048983;28;20037;-60
2023/01/10 01:25:57;;;;;;;19.38;3.33;;;5.90;99.90;;;;;;5049359;28;20052;-60
2023/01/10 01:28:23;;;;;;;21.00;3.50;;;5.90;99.90;;;;;;5049144;28;20440;-60
2023/01/10 01:30:49;;;;;;;15.05;3.10;;;5.90;99.90;;;;;;5050010;28;20087;-58
2023/01/10 01:33:15;;;;;;;21.15;3.65;;;6.00;99.90;;;;;;5048769;28;20035;-59
2023/01/10 01:35:45;;;;;;;18.70;2.95;;;6.00;99.90;;;;;;5049174;28;20029;-61
2023/01/10 01:38:12;;;;;;;14.85;2.90;;;6.00;99.90;;;;;;5048850;28;20037;-60
2023/01/10 01:40:38;;;;;;;;;;;6.00;99.90;;;;;;5050017;28;20040;-60
2023/01/10 01:43:25;;;;;;;10.70;3.00;;;6.00;99.90;;;;;;5048570;28;20012;-60
2023/01/10 01:45:52;;;;;;;20.13;3.45;;;6.00;99.90;;;;;;5049010;28;20068;-59
2023/01/10 01:48:24;;;;;;;;;;;6.00;99.90;;;;;;5049523;28;20375;-60
2023/01/10 01:51:04;;;;;;;17.75;2.53;;;6.00;99.90;;;;;;5047460;28;19920;-58
2023/01/10 01:53:52;;;;;;;20.55;2.72;;;5.90;99.90;;;;;;5048449;28;20039;-57
2023/01/10 01:56:29;;;;;;;13.60;2.50;;;5.90;99.90;;;;;;5048356;28;20037;-58
2023/01/10 01:59:00;;;;;;;17.30;3.08;;;5.90;99.90;;;;;;5048387;28;20434;-60
2023/01/10 02:01:28;;;;;;;16.15;3.38;;;5.90;99.90;;;;;;5049472;28;20098;-59
2023/01/10 02:04:18;;;;;;;13.55;2.97;;;5.90;99.90;;;;;;5046283;28;20041;-61
2023/01/10 02:06:46;;;;;;;14.73;3.20;;;5.80;99.90;;;;;;5048223;28;20045;-60
2023/01/10 02:09:19;;;;;;;17.08;3.15;;;5.80;99.90;;;;;;5048223;28;20510;-57
2023/01/10 02:11:45;;;;;;;14.07;4.07;;;5.70;99.90;;;;;;5049032;28;20088;-58
2023/01/10 02:14:12;;;;;;;17.10;3.15;;;5.70;99.90;;;;;;5048073;28;20064;-59
2023/01/10 02:16:38;;;;;;;18.75;4.15;;;5.70;99.90;;;;;;5047342;28;20494;-60
2023/01/10 02:19:12;;;;;;;19.20;3.70;;;5.60;99.90;;;;;;5048047;28;20128;-61
2023/01/10 02:22:11;;;;;;;20.42;4.15;;;5.50;99.90;;;;;;5047448;28;20047;-61
2023/01/10 02:25:14;;;;;;;16.13;3.22;;;5.40;99.90;;;;;;5047676;28;20037;-58
2023/01/10 02:27:59;;;;;;;12.98;3.42;;;5.40;99.90;;;;;;5047248;28;20079;-58
2023/01/10 02:30:39;;;;;;;21.15;4.30;;;5.30;99.90;;;;;;5048584;28;20099;-60
2023/01/10 02:33:29;;;;;;;18.00;4.18;;;5.30;99.90;;;;;;5047660;28;20106;-58
2023/01/10 02:36:41;;;;;;;19.95;3.30;;;5.30;99.90;;;;;;5048475;28;20069;-58
2023/01/10 02:39:33;;;;;;;12.98;2.78;;;5.30;99.90;;;;;;5039658;28;20060;-60
2023/01/10 02:42:06;;;;;;;13.15;3.72;;;5.30;99.90;;;;;;5048036;28;20410;-59
2023/01/10 02:44:44;;;;;;;17.13;3.22;;;5.20;99.90;;;;;;5048564;28;20051;-60
2023/01/10 02:47:12;;;;;;;17.90;3.28;;;5.20;99.90;;;;;;5049100;28;20041;-58
2023/01/10 02:49:47;;;;;;;16.52;3.03;;;5.10;99.90;;;;;;5048523;28;20041;-60
2023/01/10 02:52:19;;;;;;;18.15;3.80;;;5.20;99.90;;;;;;5049663;28;20029;-57
2023/01/10 02:54:46;;;;;;;19.13;4.03;;;5.10;99.90;;;;;;5047467;28;20525;-60
2023/01/10 02:57:30;;;;;;;12.65;3.00;;;5.10;99.90;;;;;;5048827;28;20041;-59
2023/01/10 03:00:11;;;;;;;20.92;3.45;;;5.10;99.90;;;;;;5045957;28;20045;-61
2023/01/10 03:03:04;;;;;;;15.18;2.88;;;5.10;99.90;;;;;;5049158;28;20052;-57
2023/01/10 03:05:36;;;;;;;24.17;3.40;;;5.10;99.90;;;;;;5049085;28;20056;-58
2023/01/10 03:08:31;;;;;;;23.00;3.75;;;5.10;99.90;;;;;;5048207;28;20524;-61
2023/01/10 03:11:08;;;;;;;15.38;4.82;;;5.10;99.90;;;;;;5048747;28;20040;-58
2023/01/10 03:13:42;;;;;;;20.55;3.55;;;5.20;99.90;;;;;;5047901;28;20083;-61
2023/01/10 03:16:14;;;;;;;16.88;3.85;;;5.20;99.90;;;;;;5048850;28;20033;-57
2023/01/10 03:18:56;;;;;;;21.13;3.63;;;5.20;99.90;;;;;;5047523;28;20116;-59
2023/01/10 03:21:23;;;;;;;13.95;2.67;;;5.20;99.90;;;;;;5048943;28;20381;-58
2023/01/10 03:23:53;;;;;;;17.80;3.95;;;5.30;99.90;;;;;;5047945;28;20049;-58
2023/01/10 03:26:27;;;;;;;16.10;3.75;;;5.30;99.90;;;;;;5048872;28;20040;-59
2023/01/10 03:29:06;;;;;;;18.20;3.20;;;5.30;99.90;;;;;;5048598;28;20452;-59
2023/01/10 03:31:41;;;;;;;17.67;3.50;;;5.30;99.90;;;;;;5049623;28;20040;-57
2023/01/10 03:34:07;;;;;;;24.00;3.40;;;5.30;99.90;;;;;;5048543;28;20102;-60
2023/01/10 03:36:36;;;;;;;;;;;5.30;99.90;;;;;;5048884;28;20074;-61
2023/01/10 03:39:17;;;;;;;13.57;3.20;;;5.40;99.90;;;;;;5048610;28;19920;-57
2023/01/10 03:41:57;;;;;;;14.35;2.00;;;5.40;99.90;;;;;;5049144;28;20072;-57
2023/01/10 03:44:43;;;;;;;11.75;2.47;;;5.40;99.90;;;;;;5047778;28;20037;-58
2023/01/10 03:47:23;;;;;;;16.80;3.25;;;5.40;99.90;;;;;;5048284;28;20417;-58
2023/01/10 03:49:54;;;;;;;21.73;2.92;;;5.50;99.90;;;;;;5048689;28;20502;-57
2023/01/10 03:52:20;;;;;;;21.92;4.28;;;5.50;99.90;;;;;;5048826;28;20080;-58
2023/01/10 03:54:47;;;;;;;9.95;2.60;;;5.50;99.90;;;;;;5047497;28;20580;-60
2023/01/10 03:57:22;;;;;;;13.63;2.90;;;5.50;99.90;;;;;;5047397;28;20498;-58
2023/01/10 03:59:52;;;;;;;14.48;3.03;;;5.50;99.90;;;;;;5048926;28;20052;-60
2023/01/10 04:02:18;;;;;;;25.33;2.35;;;5.60;99.90;;;;;;5049689;28;20067;-58
2023/01/10 04:04:44;;;;;;;22.63;2.63;;;5.60;99.90;;;;;;5051268;28;20072;-57
2023/01/10 04:07:09;;;;;;;15.70;3.13;;;5.60;99.90;;;;;;5051993;28;20045;-59
2023/01/10 04:09:35;;;;;;;17.00;3.10;;;5.50;99.90;;;;;;5051909;28;20045;-59
2023/01/10 04:12:01;;;;;;;18.80;3.53;;;5.50;99.90;;;;;;5051893;28;20033;-59
2023/01/10 04:14:27;;;;;;;19.10;3.27;;;5.50;99.90;;;;;;5051178;28;20291;-60
2023/01/10 04:16:53;;;;;;;16.42;1.90;;;5.40;99.90;;;;;;5039357;28;20040;-58
2023/01/10 04:19:18;;;;;;;14.03;2.80;;;5.50;99.90;;;;;;5050322;28;20226;-58
2023/01/10 04:21:44;;;;;;;13.30;2.60;;;5.50;99.90;;;;;;5052127;28;20542;-60
2023/01/10 04:24:09;;;;;;;18.37;3.20;;;5.50;99.90;;;;;;5050538;28;20073;-60
2023/01/10 04:26:35;;;;;;;12.70;2.70;;;5.60;99.90;;;;;;5051735;28;20782;-58
2023/01/10 04:29:01;;;;;;;29.67;4.90;;;5.60;99.90;;;;;;5051523;28;20064;-59
2023/01/10 04:31:26;;;;;;;25.33;3.70;;;5.70;99.90;;;;;;5051819;28;20072;-60
2023/01/10 04:33:52;;;;;;;12.47;2.73;;;5.70;99.90;;;;;;5050082;28;20103;-60
2023/01/10 04:36:17;;;;;;;25.90;4.13;;;5.70;99.90;;;;;;5051242;28;20056;-58
2023/01/10 04:38:43;;;;;;;25.60;3.73;;;5.70;99.90;;;;;;5050792;28;20120;-58
2023/01/10 04:41:09;;;;;;;16.73;4.10;;;5.80;99.90;;;;;;5052053;28;20041;-58
2023/01/10 04:43:34;;;;;;;18.20;2.80;;;5.80;99.90;;;;;;5050335;28;20037;-61
2023/01/10 04:46:00;;;;;;;21.00;3.93;;;5.80;99.90;;;;;;5050807;28;20033;-57
2023/01/10 04:48:26;;;;;;;16.07;2.90;;;5.80;99.90;;;;;;5051000;28;20055;-58
2023/01/10 04:50:52;;;;;;;24.00;3.97;;;5.80;99.90;;;;;;5051911;28;20033;-57
2023/01/10 04:53:18;;;;;;;21.83;3.80;;;5.80;99.90;;;;;;5049973;28;20287;-60
2023/01/10 04:55:44;;;;;;;23.52;4.72;;;5.80;99.90;;;;;;5051326;28;20387;-57
2023/01/10 04:58:09;;;;;;;22.75;4.85;;;5.70;99.90;;;;;;5051009;28;20068;-59
2023/01/10 05:00:35;;;;;;;17.40;3.53;;;5.70;99.90;;;;;;5051382;28;20071;-61
2023/01/10 05:03:00;;;;;;;19.43;3.80;;;5.70;99.90;;;;;;5050499;28;20064;-60
2023/01/10 05:05:27;;;;;;;21.90;4.57;;;5.60;99.90;;;;;;5050654;28;20067;-59
2023/01/10 05:07:53;;;;;;;18.45;4.75;;;5.70;99.90;;;;;;5065998;28;20124;-58
2023/01/10 05:10:18;;;;;;;22.67;4.10;;;5.70;99.90;;;;;;5050885;28;20120;-59
2023/01/10 05:12:45;;;;;;;20.50;4.57;;;5.70;99.90;;;;;;5050866;28;20498;-60
2023/01/10 05:15:11;;;;;;;31.25;4.82;;;5.80;99.90;;;;;;5049950;28;20052;-60
2023/01/10 05:17:36;;;;;;;21.50;3.78;;;5.80;99.90;;;;;;5051191;28;20048;-57
2023/01/10 05:20:03;;;;;;;20.70;3.85;;;5.80;99.90;;;;;;5050765;28;20043;-58
2023/01/10 05:22:28;;;;;;;18.85;3.50;;;5.80;99.90;;;;;;5050821;28;20052;-60
2023/01/10 05:24:54;;;;;;;27.33;4.50;;;5.90;99.90;;;;;;5048105;28;20052;-62
2023/01/10 05:27:19;;;;;;;27.30;5.37;;;5.90;99.90;;;;;;5050346;28;20041;-58
2023/01/10 05:29:45;;;;;;;20.77;4.03;;;5.90;99.90;;;;;;5050276;28;20047;-58
2023/01/10 05:32:10;;;;;;;20.40;4.60;;;5.90;99.90;;;;;;5050492;28;20036;-60
2023/01/10 05:34:36;;;;;;;27.63;4.73;;;5.90;99.90;;;;;;5049366;28;20036;-57
2023/01/10 05:37:01;;;;;;;24.77;3.77;;;5.90;99.90;;;;;;5049722;28;20056;-60
2023/01/10 05:39:27;;;;;;;26.00;5.67;;;5.90;99.90;;;;;;5050655;28;20115;-60
2023/01/10 05:41:53;;;;;;;28.90;5.70;;;5.90;99.90;;;;;;5050237;28;20363;-60
2023/01/10 05:44:18;;;;;;;21.27;3.90;;;5.90;99.90;;;;;;5049047;28;20494;-56
2023/01/10 05:46:44;;;;;;;13.70;3.17;;;5.90;99.90;;;;;;5050084;28;20340;-57
2023/01/10 05:49:09;;;;;;;22.33;4.23;;;5.90;99.90;;;;;;5049840;28;20055;-58
2023/01/10 05:51:35;;;;;;;23.70;5.57;;;5.90;99.90;;;;;;5050303;28;20041;-60
2023/01/10 05:54:01;;;;;;;18.48;4.57;;;5.90;99.90;;;;;;5049202;28;20506;-60
2023/01/10 05:56:28;;;;;;;20.63;4.83;;;5.90;99.90;;;;;;5049247;28;20043;-57
2023/01/10 05:58:53;;;;;;;22.08;3.95;;;5.80;99.90;;;;;;5050056;28;20048;-60
2023/01/10 06:01:19;;;;;;;34.20;4.30;;;5.90;99.90;;;;;;5049601;28;20037;-57
2023/01/10 06:03:45;;;;;;;16.73;4.17;;;5.90;99.90;;;;;;5049773;28;20452;-60
2023/01/10 06:06:10;;;;;;;27.43;4.67;;;5.90;99.90;;;;;;5048578;28;20035;-60
2023/01/10 06:08:36;;;;;;;24.47;4.93;;;5.90;99.90;;;;;;5049345;28;20453;-59
2023/01/10 06:11:04;;;;;;;17.40;3.13;;;6.00;99.90;;;;;;5049941;28;20052;-59
2023/01/10 06:13:30;;;;;;;23.13;4.85;;;5.90;99.90;;;;;;5047367;28;20119;-57
2023/01/10 06:15:56;;;;;;;27.77;5.13;;;5.90;99.90;;;;;;5049136;28;20124;-60
2023/01/10 06:18:21;;;;;;;17.53;3.07;;;6.00;99.90;;;;;;5049330;28;20484;-60
2023/01/10 06:20:47;;;;;;;17.13;4.20;;;5.90;99.90;;;;;;5049303;28;20552;-60
2023/01/10 06:23:12;;;;;;;18.90;4.47;;;5.90;99.90;;;;;;5048983;28;20494;-57
2023/01/10 06:25:40;;;;;;;23.33;4.07;;;5.90;99.90;;;;;;5048339;28;20116;-58
2023/01/10 06:28:10;;;;;;;21.10;4.03;;;5.90;99.90;;;;;;5044112;28;20052;-57
2023/01/10 06:30:36;;;;;;;13.77;2.40;;;5.90;99.90;;;;;;5048126;28;20548;-60
2023/01/10 06:33:04;;;;;;;21.53;3.70;;;5.90;99.90;;;;;;5048042;28;20253;-60
2023/01/10 06:35:30;;;;;;;19.02;3.92;;;5.80;99.90;;;;;;5048822;28;20341;-59
2023/01/10 06:37:55;;;;;;;16.17;3.75;;;5.80;99.90;;;;;;5049137;28;20510;-55
2023/01/10 06:40:21;;;;;;;20.75;4.28;;;5.70;99.90;;;;;;5049549;28;20072;-58
2023/01/10 06:42:47;;;;;;;19.00;3.60;;;5.70;99.90;;;;;;5049614;28;20033;-62
2023/01/10 06:45:12;;;;;;;22.17;4.53;;;5.70;99.90;;;;;;5048237;28;20068;-61
2023/01/10 06:47:38;;;;;;;22.93;3.60;;;5.70;99.90;;;;;;5048861;28;20041;-60
2023/01/10 06:50:04;;;;;;;18.43;4.13;;;5.70;99.90;;;;;;5048684;28;20037;-57
2023/01/10 06:52:30;;;;;;;20.80;2.90;;;5.70;99.90;;;;;;5049345;28;20075;-59
2023/01/10 06:54:56;;;;;;;27.83;5.40;;;5.70;99.90;;;;;;5048715;28;20037;-57
2023/01/10 06:57:21;;;;;;;16.63;4.03;;;5.70;99.90;;;;;;5047545;28;20086;-57
2023/01/10 06:59:47;;;;;;;22.37;4.03;;;5.70;99.90;;;;;;5049033;28;20041;-59
2023/01/10 07:02:13;;;;;;;17.03;3.73;;;5.70;99.90;;;;;;5065234;28;20045;-58
2023/01/10 07:04:39;;;;;;;17.05;3.50;;;5.70;99.90;;;;;;5048136;28;20087;-61
2023/01/10 07:07:05;;;;;;;17.23;4.23;;;5.70;99.90;;;;;;5049240;28;20033;-57
2023/01/10 07:09:31;;;;;;;17.88;4.03;;;5.60;99.90;;;;;;5049686;28;20037;-60
2023/01/10 07:11:56;;;;;;;20.38;4.15;;;5.60;99.90;;;;;;5047940;28;20056;-60
2023/01/10 07:14:22;;;;;;;15.73;4.17;;;5.60;99.90;;;;;;5048866;28;20048;-57
2023/01/10 07:16:47;;;;;;;17.93;4.87;;;5.60;99.90;;;;;;5048740;28;20417;-61
2023/01/10 07:19:14;;;;;;;23.80;4.87;;;5.60;99.90;;;;;;5048458;28;20510;-60
2023/01/10 07:21:40;;;;;;;25.60;5.00;;;5.50;99.90;;;;;;5049493;28;20283;-60
2023/01/10 07:24:06;;;;;;;23.60;5.10;;;5.50;99.90;;;;;;5048076;28;20052;-62
2023/01/10 07:26:32;;;;;;;18.52;4.53;;;5.50;99.90;;;;;;5049471;28;20123;-60
2023/01/10 07:28:57;;;;;;;26.83;5.87;;;5.60;99.90;;;;;;5048659;28;20098;-60
2023/01/10 07:31:23;;;;;;;19.43;4.30;;;5.60;99.90;;;;;;5048801;28;20040;-58
2023/01/10 07:33:52;;;;;;;26.77;5.10;;;5.60;99.90;;;;;;5047355;28;20124;-59
2023/01/10 07:36:18;;;;;;;23.45;5.18;;;5.70;99.90;;;;;;5048166;28;20060;-60
2023/01/10 07:38:43;;;;;;;26.05;5.38;;;5.70;99.90;;;;;;5051870;28;20037;-58
2023/01/10 07:41:09;;;;;;;23.00;5.40;;;5.70;99.90;;;;;;5052522;28;20035;-57
2023/01/10 07:43:35;;;;;;;33.17;6.00;;;5.70;99.90;;;;;;5051667;28;20095;-58
2023/01/10 07:46:03;;;;;;;25.47;6.53;;;5.70;99.90;;;;;;5051740;28;20291;-57
2023/01/10 07:48:30;;;;;;;24.13;5.22;;;5.70;99.90;;;;;;5051658;28;20094;-58
2023/01/10 07:50:56;;;;;;;20.92;5.65;;;5.60;99.90;;;;;;5052370;28;20049;-60
2023/01/10 07:53:22;;;;;;;22.92;5.75;;;5.60;99.90;;;;;;5050594;28;20339;-57
2023/01/10 07:55:49;;;;;;;26.75;5.82;;;5.60;99.90;;;;;;5040992;28;20401;-57
2023/01/10 07:58:14;;;;;;;27.95;7.53;;;5.60;99.90;;;;;;5051927;28;20033;-59
2023/01/10 08:00:40;;;;;;;34.77;5.80;;;5.60;99.90;;;;;;5050655;28;20051;-59
2023/01/10 08:03:05;;;;;;;24.60;6.63;;;5.60;99.90;;;;;;5050150;28;20135;-60
2023/01/10 08:05:31;;;;;;;32.97;6.87;;;5.70;99.90;;;;;;5048555;28;20052;-60
2023/01/10 08:08:04;;;;;;;31.90;5.35;;;5.70;99.90;;;;;;5051963;28;20159;-60
2023/01/10 08:10:29;;;;;;;28.58;6.95;;;5.70;99.90;;;;;;5051783;28;20086;-60
2023/01/10 08:12:55;;;;;;;26.17;5.37;;;5.70;99.90;;;;;;5051171;28;20044;-60
2023/01/10 08:15:20;;;;;;;27.33;5.27;;;5.70;99.90;;;;;;5051012;28;20079;-59
2023/01/10 08:17:47;;;;;;;30.23;5.33;;;5.70;99.90;;;;;;5049944;28;20094;-60
2023/01/10 08:20:12;;;;;;;30.25;6.20;;;5.70;99.90;;;;;;5051950;28;20542;-61
2023/01/10 08:22:38;;;;;;;19.80;6.00;;;5.80;99.90;;;;;;5067466;28;20086;-59
2023/01/10 08:25:04;;;;;;;29.80;5.83;;;5.90;99.90;;;;;;5048950;28;20045;-59
2023/01/10 08:27:29;;;;;;;23.58;4.63;;;5.90;99.90;;;;;;5050493;28;20426;-60
2023/01/10 08:29:55;;;;;;;22.70;6.27;;;6.00;99.90;;;;;;5050786;28;20415;-63
2023/01/10 08:32:21;;;;;;;19.60;5.30;;;6.10;99.90;;;;;;5051369;28;20049;-57
2023/01/10 08:34:47;;;;;;;21.55;4.90;;;6.20;99.90;;;;;;5049986;28;20086;-60
2023/01/10 08:37:13;;;;;;;18.80;4.30;;;6.20;99.90;;;;;;5049954;28;20041;-58
2023/01/10 08:39:38;;;;;;;14.57;4.38;;;6.20;99.90;;;;;;5051766;28;20350;-60
2023/01/10 08:42:04;;;;;;;25.17;4.75;;;6.20;99.90;;;;;;5036968;28;20522;-60
2023/01/10 08:44:30;;;;;;;21.00;4.70;;;6.20;99.90;;;;;;5046040;28;20037;-62
2023/01/10 08:46:55;;;;;;;18.47;4.30;;;6.30;99.90;;;;;;5050642;28;20045;-60
2023/01/10 08:49:21;;;;;;;18.30;3.50;;;6.30;99.90;;;;;;5050737;28;20033;-59
2023/01/10 08:51:47;;;;;;;23.52;4.22;;;6.40;99.90;;;;;;5051240;28;20061;-60
2023/01/10 08:54:13;;;;;;;23.53;4.33;;;6.40;99.90;;;;;;5046815;28;20045;-59
2023/01/10 08:56:39;;;;;;;24.40;5.17;;;6.40;99.90;;;;;;5049487;28;20287;-62
2023/01/10 08:59:05;;;;;;;20.17;4.00;;;6.40;99.90;;;;;;5050564;28;20796;-62
2023/01/10 09:01:31;;;;;;;29.67;5.35;;;6.40;99.90;;;;;;5050719;28;20066;-61
2023/01/10 09:03:56;;;;;;;26.45;4.82;;;6.40;99.90;;;;;;5049463;28;20486;-61
2023/01/10 09:06:23;;;;;;;27.70;4.90;;;6.30;99.90;;;;;;5047183;28;20029;-60
2023/01/10 09:08:48;;;;;;;26.70;5.07;;;6.30;99.90;;;;;;5050963;28;20033;-60
2023/01/10 09:11:14;;;;;;;26.67;4.35;;;6.30;99.90;;;;;;5051300;28;20044;-58
2023/01/10 09:13:41;;;;;;;19.33;4.75;;;6.30;99.90;;;;;;5050502;28;20095;-58
2023/01/10 09:16:07;;;;;;;18.65;5.60;;;6.20;99.90;;;;;;5045595;28;20080;-58
2023/01/10 09:18:33;;;;;;;29.67;5.57;;;6.20;99.90;;;;;;5030983;28;20045;-56
2023/01/10 09:20:59;;;;;;;21.55;5.68;;;6.20;99.90;;;;;;5050003;28;20106;-58
2023/01/10 09:23:25;;;;;;;27.33;7.97;;;6.20;99.90;;;;;;5050579;28;20073;-57
2023/01/10 09:25:52;;;;;;;25.83;6.32;;;6.20;99.90;;;;;;5048848;28;20072;-56
2023/01/10 09:28:19;;;;;;;30.90;6.25;;;6.20;99.90;;;;;;5048839;28;20445;-57
2023/01/10 09:30:45;;;;;;;28.27;6.07;;;6.20;99.90;;;;;;5050970;28;20447;-56
2023/01/10 09:33:11;;;;;;;32.95;6.63;;;6.20;99.90;;;;;;5048742;28;20094;-57
2023/01/10 09:35:38;;;;;;;29.05;7.30;;;6.20;99.90;;;;;;5054760;28;20521;-56
2023/01/10 09:38:06;;;;;;;26.95;8.10;;;6.30;99.90;;;;;;5049573;28;20044;-57
2023/01/10 09:41:08;;;;;;;31.60;6.70;;;6.30;99.90;;;;;;5044132;28;20158;-58
2023/01/10 09:43:54;;;;;;;33.13;8.40;;;6.40;99.90;;;;;;5038044;28;20052;-60
2023/01/10 09:46:38;;;;;;;29.20;9.23;;;6.40;99.90;;;;;;5047116;28;20482;-56
2023/01/10 09:49:41;;;;;;;34.72;8.93;;;6.40;99.90;;;;;;5049749;28;20048;-59
2023/01/10 09:52:20;;;;;;;25.20;7.28;;;6.40;99.90;;;;;;5017810;28;20053;-59
2023/01/10 09:54:49;;;;;;;34.10;9.13;;;6.50;99.90;;;;;;5042787;28;20037;-59
2023/01/10 09:57:20;;;;;;;30.55;8.40;;;6.50;99.90;;;;;;5049847;28;20073;-58
2023/01/10 09:59:50;;;;;;;33.03;7.90;;;6.60;99.90;;;;;;5049155;28;20163;-58
2023/01/10 10:02:31;;;;;;;29.05;7.25;;;6.60;99.90;;;;;;5049791;28;20525;-58
2023/01/10 10:05:15;;;;;;;28.88;8.80;;;6.60;99.90;;;;;;5048614;28;20040;-57
2023/01/10 10:07:41;;;;;;;34.15;9.65;;;6.60;99.90;;;;;;5049532;28;20037;-60
2023/01/10 10:10:15;;;;;;;33.13;8.37;;;6.60;99.90;;;;;;5049169;28;20036;-58
2023/01/10 10:13:07;;;;;;;33.70;8.43;;;6.70;99.90;;;;;;5049962;28;20057;-62
2023/01/10 10:15:59;;;;;;;33.85;8.23;;;6.70;99.90;;;;;;5049337;28;20032;-57
2023/01/10 10:19:04;;;;;;;29.35;7.65;;;6.70;99.90;;;;;;5049156;28;20059;-59
2023/01/10 10:21:55;;;;;;;31.08;7.97;;;6.70;99.90;;;;;;5049453;28;20051;-60
2023/01/10 10:24:39;;;;;;;33.05;9.57;;;6.80;99.90;;;;;;5036760;28;20063;-58
2023/01/10 10:27:21;;;;;;;38.13;9.32;;;6.80;99.90;;;;;;5048067;28;20128;-58
2023/01/10 10:30:03;;;;;;;32.30;10.32;;;6.80;99.90;;;;;;5048523;28;20040;-58
2023/01/10 10:32:52;;;;;;;28.52;8.02;;;6.80;99.90;;;;;;5049449;28;20045;-57
2023/01/10 10:35:26;;;;;;;26.70;7.80;;;6.80;99.90;;;;;;5044334;28;20049;-57
2023/01/10 10:37:55;;;;;;;30.90;8.00;;;6.90;99.90;;;;;;5048972;28;20036;-59
2023/01/10 10:40:24;;;;;;;32.65;8.07;;;6.80;99.90;;;;;;5048766;28;20406;-55
2023/01/10 10:42:53;;;;;;;35.03;8.38;;;6.90;99.90;;;;;;5038728;28;20494;-62
2023/01/10 10:45:27;;;;;;;28.77;8.13;;;6.80;99.90;;;;;;5041637;28;20029;-61
2023/01/10 10:48:06;;;;;;;39.90;8.75;;;6.80;99.90;;;;;;5048149;28;20124;-57
2023/01/10 10:50:34;;;;;;;32.72;7.22;;;6.80;99.90;;;;;;5042093;28;20037;-59
2023/01/10 10:53:01;;;;;;;29.05;7.88;;;6.80;99.90;;;;;;5047435;28;20037;-59
2023/01/10 10:55:32;;;;;;;24.85;7.03;;;6.80;99.90;;;;;;5047987;28;20082;-57
2023/01/10 10:57:57;;;;;;;30.50;6.43;;;6.90;99.90;;;;;;5045977;28;20106;-59
2023/01/10 11:00:24;;;;;;;32.03;6.67;;;6.80;99.90;;;;;;5047079;28;20033;-56
2023/01/10 11:03:10;;;;;;;26.63;7.40;;;6.90;99.90;;;;;;5049519;28;20851;-59
2023/01/10 11:05:39;;;;;;;26.73;6.05;;;6.90;99.90;;;;;;5041202;28;20092;-59
2023/01/10 11:08:10;;;;;;;24.73;5.43;;;6.90;99.90;;;;;;5047693;28;20045;-57
2023/01/10 11:10:37;;;;;;;20.10;5.40;;;6.90;99.90;;;;;;5043864;28;20162;-60
2023/01/10 11:13:04;;;;;;;;;;;6.90;99.90;;;;;;5051632;28;20040;-58
2023/01/10 11:15:42;;;;;;;32.97;5.28;;;6.90;99.90;;;;;;5063680;28;19924;-56
2023/01/10 11:18:14;;;;;;;32.78;7.18;;;6.90;99.90;;;;;;5050236;28;20121;-56
2023/01/10 11:20:51;;;;;;;33.58;5.47;;;7.00;99.90;;;;;;5045289;28;20443;-58
2023/01/10 11:23:45;;;;;;;26.50;6.03;;;7.00;99.90;;;;;;5047710;28;20522;-58
2023/01/10 11:26:35;;;;;;;34.30;6.10;;;7.00;99.90;;;;;;5041135;28;20340;-60
2023/01/10 11:29:20;;;;;;;25.60;4.75;;;7.00;99.90;;;;;;5050682;28;20351;-57
2023/01/10 11:31:47;;;;;;;31.85;5.53;;;7.00;99.90;;;;;;5045453;28;20072;-57
2023/01/10 11:34:29;;;;;;;21.65;5.30;;;7.00;99.90;;;;;;5045020;28;20033;-60
2023/01/10 11:36:58;;;;;;;26.92;4.85;;;7.00;99.90;;;;;;5051445;28;20037;-56
2023/01/10 11:39:24;;;;;;;25.98;6.57;;;7.00;99.90;;;;;;5052109;28;20095;-57
2023/01/10 11:41:52;;;;;;;31.15;6.93;;;7.00;99.90;;;;;;5050452;28;20054;-56
2023/01/10 11:44:24;;;;;;;29.70;6.40;;;7.00;99.90;;;;;;5050273;28;20048;-60
2023/01/10 11:46:54;;;;;;;28.38;6.32;;;7.00;99.90;;;;;;5043079;28;20406;-57
2023/01/10 11:49:37;;;;;;;31.30;5.35;;;7.00;99.90;;;;;;5052819;28;20067;-57
2023/01/10 11:52:17;;;;;;;39.65;7.13;;;6.90;99.90;;;;;;5052091;28;20041;-60
2023/01/10 11:54:43;;;;;;;23.02;6.75;;;6.90;99.90;;;;;;5062476;28;20040;-60
2023/01/10 11:57:24;;;;;;;32.00;5.55;;;6.90;99.90;;;;;;5056610;28;20055;-60
2023/01/10 11:59:57;;;;;;;24.73;6.13;;;7.00;99.90;;;;;;5054176;28;20072;-60
2023/01/10 12:02:29;;;;;;;28.80;6.60;;;6.90;99.90;;;;;;5056637;28;20067;-61
2023/01/10 12:04:57;;;;;;;29.25;6.03;;;6.90;99.90;;;;;;5053906;28;20056;-59
2023/01/10 12:07:22;;;;;;;30.98;6.25;;;6.90;99.90;;;;;;5055250;28;20398;-59
2023/01/10 12:10:02;;;;;;;27.93;5.33;;;6.90;99.90;;;;;;5057049;28;20044;-60
2023/01/10 12:12:33;;;;;;;39.38;7.95;;;6.90;99.90;;;;;;5055860;28;20033;-60
2023/01/10 12:15:20;;;;;;;29.67;4.85;;;6.90;99.90;;;;;;5053572;28;20041;-59
2023/01/10 12:17:45;;;;;;;23.20;5.30;;;6.90;99.90;;;;;;5053181;28;20541;-58
2023/01/10 12:20:13;;;;;;;23.63;5.25;;;6.90;99.90;;;;;;5063599;28;20041;-59
2023/01/10 12:22:41;;;;;;;31.88;6.00;;;6.80;99.90;;;;;;5057492;28;20079;-57
2023/01/10 12:25:20;;;;;;;25.70;6.03;;;6.90;99.90;;;;;;5054244;28;20047;-58
2023/01/10 12:27:49;;;;;;;28.42;5.50;;;6.90;99.90;;;;;;5051176;28;20041;-59
2023/01/10 12:30:29;;;;;;;29.08;4.78;;;6.80;99.90;;;;;;5052249;28;20045;-59
2023/01/10 12:32:57;;;;;;;34.85;5.18;;;6.80;99.90;;;;;;5055329;28;20066;-60
2023/01/10 12:35:33;;;;;;;27.38;5.38;;;6.80;99.90;;;;;;5060802;28;20041;-59
2023/01/10 12:38:10;;;;;;;29.00;4.90;;;6.80;99.90;;;;;;5055853;28;20093;-60
2023/01/10 12:40:47;;;;;;;28.80;6.13;;;6.80;99.90;;;;;;5062229;28;20044;-60
2023/01/10 12:46:41;;;;;;;28.92;5.18;;;6.70;99.90;;;;;;5055904;28;20052;-60
2023/01/10 12:49:17;;;;;;;30.75;5.95;;;6.70;99.90;;;;;;5054691;28;20382;-59
2023/01/10 12:51:44;;;;;;;25.35;6.78;;;6.70;99.90;;;;;;5056854;28;20509;-60
2023/01/10 12:54:23;;;;;;;30.38;6.15;;;6.70;99.90;;;;;;5059667;28;20036;-57
2023/01/10 12:56:50;;;;;;;27.23;6.50;;;6.70;99.90;;;;;;5056842;28;20072;-61
2023/01/10 12:59:21;;;;;;;22.38;6.20;;;6.70;99.90;;;;;;5053584;28;20052;-59
2023/01/10 13:01:52;;;;;;;26.92;6.13;;;6.70;99.90;;;;;;5071420;28;20403;-58
2023/01/10 13:04:22;;;;;;;38.60;6.32;;;6.70;99.90;;;;;;5049897;28;20041;-60
2023/01/10 13:06:49;;;;;;;31.25;6.50;;;6.60;99.90;;;;;;5058792;28;20037;-58
2023/01/10 13:09:20;;;;;;;31.50;5.85;;;6.60;99.90;;;;;;5053985;28;20037;-60
2023/01/10 13:12:04;;;;;;;27.02;5.53;;;6.60;99.90;;;;;;5059544;28;20029;-60